createdAt,value
2019-02-02T00:02:10.033Z,63.98
2019-02-02T00:04:36.360Z,63.35
2019-02-02T00:07:03.225Z,65.32
2019-02-02T00:09:32.619Z,62.93
2019-02-02T00:11:58.898Z,59.58
2019-02-02T00:14:25.193Z,68.10
2019-02-02T00:16:51.557Z,65.50
2019-02-02T00:19:17.875Z,58.92
2019-02-02T00:21:44.229Z,67.32
2019-02-02T00:24:10.606Z,66.72
2019-02-02T00:26:36.993Z,69.55
2019-02-02T00:29:04.241Z,73.92
2019-02-02T00:31:30.597Z,59.55
2019-02-02T00:33:57.109Z,67.42
2019-02-02T00:36:23.464Z,64.05
2019-02-02T00:38:49.763Z,63.10
2019-02-02T00:41:16.150Z,68.02
2019-02-02T00:43:42.934Z,64.87
2019-02-02T00:46:09.544Z,67.72
2019-02-02T00:48:35.842Z,61.63
2019-02-02T00:51:02.527Z,62.35
2019-02-02T00:53:29.330Z,54.42
2019-02-02T00:55:56.886Z,62.13
2019-02-02T00:58:23.271Z,62.80
2019-02-02T01:00:49.579Z,63.17
2019-02-02T01:03:15.927Z,59.13
2019-02-02T01:05:42.140Z,62.83
2019-02-02T01:08:08.588Z,66.97
2019-02-02T01:10:40.411Z,61.60
2019-02-02T01:13:06.891Z,74.22
2019-02-02T01:15:33.574Z,63.13
2019-02-02T01:18:00.425Z,63.25
2019-02-02T01:20:27.244Z,70.10
2019-02-02T01:22:53.661Z,66.00
2019-02-02T01:25:20.468Z,63.95
2019-02-02T01:27:47.052Z,65.03
2019-02-02T01:30:19.202Z,65.75
2019-02-02T01:32:45.565Z,73.42
2019-02-02T01:35:14.527Z,64.72
2019-02-02T01:37:42.644Z,58.70
2019-02-02T01:40:12.730Z,64.03
2019-02-02T01:42:39.076Z,62.95
2019-02-02T01:45:17.829Z,66.65
2019-02-02T01:47:50.502Z,63.90
2019-02-02T01:50:22.297Z,56.70
2019-02-02T01:52:51.042Z,63.73
2019-02-02T01:55:17.527Z,60.83
2019-02-02T01:57:44.010Z,65.32
2019-02-02T02:00:17.188Z,61.98
2019-02-02T02:02:43.435Z,66.22
2019-02-02T02:05:10.040Z,65.83
2019-02-02T02:07:36.685Z,69.25
2019-02-02T02:10:06.368Z,66.53
2019-02-02T02:12:32.754Z,63.15
2019-02-02T02:14:59.142Z,66.07
2019-02-02T02:17:25.439Z,66.97
2019-02-02T02:19:51.721Z,62.03
2019-02-02T02:22:17.970Z,59.95
2019-02-02T02:24:44.245Z,66.47
2019-02-02T02:27:10.539Z,68.05
2019-02-02T02:29:38.254Z,66.42
2019-02-02T02:32:04.892Z,63.33
2019-02-02T02:34:31.129Z,68.67
2019-02-02T02:36:57.437Z,66.85
2019-02-02T02:39:23.711Z,65.95
2019-02-02T02:41:49.958Z,62.33
2019-02-02T02:44:16.243Z,63.50
2019-02-02T02:46:43.020Z,67.12
2019-02-02T02:49:10.989Z,65.85
2019-02-02T02:51:38.604Z,68.33
2019-02-02T02:54:07.052Z,72.25
2019-02-02T02:56:36.420Z,68.67
2019-02-02T02:59:02.964Z,76.57
2019-02-02T03:01:30.511Z,67.72
2019-02-02T03:03:56.854Z,67.27
2019-02-02T03:06:23.265Z,64.15
2019-02-02T03:08:49.516Z,70.60
2019-02-02T03:11:16.348Z,67.45
2019-02-02T03:13:46.031Z,72.95
2019-02-02T03:16:12.478Z,66.42
2019-02-02T03:18:39.096Z,63.87
2019-02-02T03:21:05.471Z,64.60
2019-02-02T03:23:31.773Z,66.37
2019-02-02T03:25:58.196Z,67.00
2019-02-02T03:28:24.959Z,67.37
2019-02-02T03:30:51.196Z,65.90
2019-02-02T03:33:17.510Z,63.63
2019-02-02T03:35:43.862Z,64.77
2019-02-02T03:38:10.145Z,70.50
2019-02-02T03:40:36.389Z,65.60
2019-02-02T03:43:03.002Z,71.72
2019-02-02T03:45:29.689Z,70.12
2019-02-02T03:47:56.078Z,78.02
2019-02-02T03:50:22.344Z,63.15
2019-02-02T03:52:49.387Z,75.20
2019-02-02T03:55:16.267Z,62.48
2019-02-02T03:57:51.473Z,74.12
2019-02-02T04:00:19.927Z,71.77
2019-02-02T04:02:46.524Z,62.55
2019-02-02T04:05:21.733Z,65.95
2019-02-02T04:07:48.097Z,68.95
2019-02-02T04:10:14.392Z,69.15
2019-02-02T04:12:41.033Z,65.45
2019-02-02T04:15:10.036Z,75.45
2019-02-02T04:17:36.395Z,74.85
2019-02-02T04:20:09.520Z,69.97
2019-02-02T04:22:35.925Z,68.02
2019-02-02T04:25:04.571Z,68.50
2019-02-02T04:27:31.496Z,69.55
2019-02-02T04:29:58.153Z,69.82
2019-02-02T04:32:24.423Z,63.92
2019-02-02T04:34:56.552Z,69.80
2019-02-02T04:37:23.187Z,66.42
2019-02-02T04:39:49.418Z,70.55
2019-02-02T04:42:15.880Z,61.73
2019-02-02T04:44:42.216Z,67.97
2019-02-02T04:47:08.491Z,63.25
2019-02-02T04:49:34.794Z,69.37
2019-02-02T04:52:01.024Z,65.00
2019-02-02T04:54:27.335Z,65.78
2019-02-02T04:56:53.843Z,69.85
2019-02-02T04:59:29.068Z,72.50
2019-02-02T05:01:48.152Z,75.32
2019-02-02T05:04:14.445Z,65.10
2019-02-02T05:06:40.805Z,67.12
2019-02-02T05:09:07.095Z,74.85
2019-02-02T05:11:33.883Z,65.87
2019-02-02T05:14:00.276Z,80.00
2019-02-02T05:16:28.168Z,69.65
2019-02-02T05:18:54.474Z,71.57
2019-02-02T05:21:20.749Z,80.55
2019-02-02T05:23:47.492Z,76.02
2019-02-02T05:26:14.966Z,69.47
2019-02-02T05:28:41.387Z,76.53
2019-02-02T05:31:09.165Z,72.82
2019-02-02T05:33:35.488Z,77.53
2019-02-02T05:36:01.848Z,73.97
2019-02-02T05:38:28.440Z,74.92
2019-02-02T05:40:57.445Z,71.47
2019-02-02T05:43:23.711Z,82.22
2019-02-02T05:45:50.028Z,72.65
2019-02-02T05:48:16.294Z,74.60
2019-02-02T05:50:42.571Z,72.40
2019-02-02T05:53:08.865Z,80.12
2019-02-02T05:55:35.403Z,71.62
2019-02-02T05:58:02.242Z,75.10
2019-02-02T06:00:31.361Z,65.30
2019-02-02T06:02:57.655Z,81.80
2019-02-02T06:05:23.942Z,71.95
2019-02-02T06:07:50.276Z,72.82
2019-02-02T06:10:18.622Z,71.72
2019-02-02T06:12:48.065Z,81.90
2019-02-02T06:15:14.765Z,83.55
2019-02-02T06:17:44.182Z,77.00
2019-02-02T06:20:15.852Z,75.42
2019-02-02T06:22:42.235Z,80.07
2019-02-02T06:25:10.922Z,98.12
2019-02-02T06:27:37.169Z,78.65
2019-02-02T06:30:10.066Z,92.62
2019-02-02T06:32:36.623Z,81.08
2019-02-02T06:35:05.551Z,85.90
2019-02-02T06:37:31.835Z,89.55
2019-02-02T06:39:58.430Z,86.37
2019-02-02T06:42:24.866Z,90.83
2019-02-02T06:44:51.143Z,81.92
2019-02-02T06:47:17.951Z,87.35
2019-02-02T06:49:44.249Z,86.63
2019-02-02T06:52:10.695Z,90.67
2019-02-02T06:54:36.958Z,81.53
2019-02-02T06:57:03.619Z,87.70
2019-02-02T06:59:29.881Z,93.37
2019-02-02T07:01:56.214Z,72.27
2019-02-02T07:04:22.886Z,80.70
2019-02-02T07:06:49.169Z,82.60
2019-02-02T07:09:15.464Z,87.37
2019-02-02T07:11:41.698Z,85.45
2019-02-02T07:14:08.118Z,83.00
2019-02-02T07:16:34.391Z,78.50
2019-02-02T07:19:00.719Z,96.37
2019-02-02T07:21:27.431Z,88.75
2019-02-02T07:23:53.818Z,82.65
2019-02-02T07:26:20.401Z,86.25
2019-02-02T07:28:46.692Z,86.67
2019-02-02T07:31:13.107Z,85.07
2019-02-02T07:33:39.506Z,86.25
2019-02-02T07:36:06.118Z,84.25
2019-02-02T07:38:32.965Z,86.65
2019-02-02T07:40:59.383Z,78.65
2019-02-02T07:43:25.778Z,87.10
2019-02-02T07:45:52.105Z,95.87
2019-02-02T07:48:18.812Z,87.65
2019-02-02T07:50:45.057Z,94.13
2019-02-02T07:53:11.394Z,84.83
2019-02-02T07:55:37.643Z,89.25
2019-02-02T07:58:05.148Z,83.90
2019-02-02T08:00:40.710Z,94.75
2019-02-02T08:03:05.255Z,84.17
2019-02-02T08:05:31.518Z,91.47
2019-02-02T08:07:57.930Z,93.87
2019-02-02T08:10:24.369Z,84.67
2019-02-02T08:12:50.887Z,93.55
2019-02-02T08:15:22.918Z,90.00
2019-02-02T08:17:49.117Z,86.37
2019-02-02T08:20:15.868Z,93.00
2019-02-02T08:22:42.404Z,86.32
2019-02-02T08:25:13.704Z,98.07
2019-02-02T08:27:40.413Z,81.53
2019-02-02T08:30:19.926Z,80.22
2019-02-02T08:32:46.737Z,91.92
2019-02-02T08:35:18.649Z,90.15
2019-02-02T08:37:45.068Z,84.07
2019-02-02T08:40:14.269Z,89.92
2019-02-02T08:42:40.510Z,88.60
2019-02-02T08:45:08.541Z,88.47
2019-02-02T08:47:34.801Z,94.28
2019-02-02T08:50:05.921Z,86.75
2019-02-02T08:52:32.200Z,86.97
2019-02-02T08:54:58.481Z,93.05
2019-02-02T08:57:24.827Z,83.97
2019-02-02T08:59:51.243Z,95.10
2019-02-02T09:02:18.559Z,90.60
2019-02-02T09:04:45.032Z,95.40
2019-02-02T09:07:11.777Z,88.30
2019-02-02T09:09:38.050Z,84.55
2019-02-02T09:12:04.448Z,88.12
2019-02-02T09:14:30.768Z,85.70
2019-02-02T09:16:58.793Z,90.70
2019-02-02T09:19:25.540Z,87.20
2019-02-02T09:21:52.371Z,98.35
2019-02-02T09:24:18.958Z,95.85
2019-02-02T09:26:45.201Z,88.60
2019-02-02T09:29:11.461Z,101.05
2019-02-02T09:31:38.086Z,100.47
2019-02-02T09:34:04.986Z,96.78
2019-02-02T09:36:31.342Z,92.37
2019-02-02T09:38:57.729Z,100.47
2019-02-02T09:41:23.981Z,93.07
2019-02-02T09:43:50.330Z,92.67
2019-02-02T09:46:16.969Z,92.25
2019-02-02T09:48:49.038Z,94.28
2019-02-02T09:51:15.315Z,92.00
2019-02-02T09:53:41.602Z,91.82
2019-02-02T09:56:07.866Z,98.00
2019-02-02T09:58:34.197Z,99.22
2019-02-02T10:01:00.544Z,96.12
2019-02-02T10:03:26.928Z,100.22
2019-02-02T10:05:53.308Z,88.42
2019-02-02T10:08:19.621Z,97.08
2019-02-02T10:10:48.285Z,106.83
2019-02-02T10:13:14.668Z,94.03
2019-02-02T10:15:41.327Z,101.47
2019-02-02T10:18:10.743Z,92.10
2019-02-02T10:20:37.116Z,97.92
2019-02-02T10:23:04.184Z,104.30
2019-02-02T10:25:30.838Z,99.95
2019-02-02T10:27:57.307Z,91.75
2019-02-02T10:30:29.154Z,95.20
2019-02-02T10:32:55.649Z,103.10
2019-02-02T10:35:21.905Z,103.15
2019-02-02T10:37:48.183Z,104.12
2019-02-02T10:40:15.855Z,105.03
2019-02-02T10:42:51.448Z,107.20
2019-02-02T10:45:18.237Z,99.80
2019-02-02T10:47:47.906Z,97.88
2019-02-02T10:50:24.498Z,106.83
2019-02-02T10:52:50.908Z,98.05
2019-02-02T10:55:17.455Z,94.13
2019-02-02T10:57:45.713Z,107.12
2019-02-02T11:00:21.235Z,106.55
2019-02-02T11:02:47.926Z,106.07
2019-02-02T11:05:14.671Z,109.15
2019-02-02T11:07:41.022Z,100.90
2019-02-02T11:10:19.245Z,102.32
2019-02-02T11:12:46.627Z,120.37
2019-02-02T11:15:15.934Z,108.52
2019-02-02T11:17:42.371Z,108.05
2019-02-02T11:20:17.487Z,115.85
2019-02-02T11:22:42.818Z,107.72
2019-02-02T11:25:10.682Z,118.05
2019-02-02T11:27:37.001Z,110.08
2019-02-02T11:30:09.733Z,109.03
2019-02-02T11:32:36.243Z,122.30
2019-02-02T11:35:05.627Z,113.90
2019-02-02T11:37:31.930Z,103.22
2019-02-02T11:39:58.525Z,107.32
2019-02-02T11:42:25.276Z,104.85
2019-02-02T11:44:51.598Z,103.20
2019-02-02T11:47:20.809Z,106.35
2019-02-02T11:49:47.599Z,97.57
2019-02-02T11:52:14.142Z,101.97
2019-02-02T11:54:40.568Z,112.37
2019-02-02T11:57:06.915Z,91.63
2019-02-02T11:59:33.491Z,105.63
2019-02-02T12:02:00.058Z,100.75
2019-02-02T12:04:26.571Z,99.85
2019-02-02T12:06:52.980Z,114.15
2019-02-02T12:09:19.561Z,100.47
2019-02-02T12:11:45.980Z,96.47
2019-02-02T12:14:12.456Z,107.30
2019-02-02T12:16:38.821Z,100.70
2019-02-02T12:19:05.752Z,105.95
2019-02-02T12:21:32.528Z,100.75
2019-02-02T12:23:59.231Z,97.92
2019-02-02T12:26:25.646Z,97.37
2019-02-02T12:28:52.304Z,94.87
2019-02-02T12:31:18.699Z,103.22
2019-02-02T12:33:45.005Z,99.30
2019-02-02T12:36:11.272Z,106.32
2019-02-02T12:38:38.063Z,110.95
2019-02-02T12:41:04.540Z,100.75
2019-02-02T12:43:30.839Z,98.72
2019-02-02T12:45:57.272Z,101.60
2019-02-02T12:48:25.320Z,122.22
2019-02-02T12:50:51.721Z,102.12
2019-02-02T12:53:17.999Z,117.75
2019-02-02T12:55:44.548Z,93.97
2019-02-02T12:58:12.799Z,98.03
2019-02-02T13:00:39.851Z,101.55
2019-02-02T13:03:06.375Z,97.65
2019-02-02T13:05:32.916Z,93.30
2019-02-02T13:07:59.651Z,95.80
2019-02-02T13:10:28.354Z,107.87
2019-02-02T13:12:54.720Z,92.05
2019-02-02T13:15:21.614Z,94.90
2019-02-02T13:17:47.967Z,106.70
2019-02-02T13:20:15.544Z,93.25
2019-02-02T13:22:42.037Z,101.15
2019-02-02T13:25:13.884Z,100.35
2019-02-02T13:27:40.229Z,98.75
2019-02-02T13:30:10.444Z,96.63
2019-02-02T13:32:36.808Z,98.90
2019-02-02T13:35:06.942Z,111.17
2019-02-02T13:37:33.303Z,101.75
2019-02-02T13:39:59.718Z,100.60
2019-02-02T13:42:26.094Z,101.70
2019-02-02T13:44:52.399Z,88.85
2019-02-02T13:47:18.684Z,102.00
2019-02-02T13:49:45.193Z,99.65
2019-02-02T13:52:11.568Z,93.65
2019-02-02T13:54:38.171Z,104.35
2019-02-02T13:57:04.543Z,93.70
2019-02-02T13:59:30.864Z,99.60
2019-02-02T14:02:06.272Z,93.40
2019-02-02T14:04:32.577Z,102.02
2019-02-02T14:06:58.976Z,100.60
2019-02-02T14:09:26.894Z,108.78
2019-02-02T14:11:53.657Z,90.83
2019-02-02T14:14:22.883Z,94.50
2019-02-02T14:16:49.281Z,96.92
2019-02-02T14:19:15.621Z,93.35
2019-02-02T14:21:42.139Z,96.80
2019-02-02T14:24:08.501Z,99.05
2019-02-02T14:26:35.056Z,94.60
2019-02-02T14:29:01.264Z,104.65
2019-02-02T14:31:27.908Z,99.07
2019-02-02T14:33:54.194Z,100.22
2019-02-02T14:36:20.498Z,92.85
2019-02-02T14:38:46.905Z,96.55
2019-02-02T14:41:13.506Z,89.15
2019-02-02T14:43:39.759Z,99.00
2019-02-02T14:46:06.034Z,85.07
2019-02-02T14:48:32.390Z,97.15
2019-02-02T14:50:58.656Z,95.77
2019-02-02T14:53:24.963Z,110.65
2019-02-02T14:55:51.602Z,87.88
2019-02-02T14:58:18.064Z,106.95
2019-02-02T15:00:47.029Z,106.03
2019-02-02T15:03:25.198Z,93.05
2019-02-02T15:05:43.105Z,94.35
2019-02-02T15:08:09.496Z,100.22
2019-02-02T15:10:36.092Z,102.80
2019-02-02T15:13:02.876Z,95.60
2019-02-02T15:15:29.519Z,96.80
2019-02-02T15:17:55.894Z,102.17
2019-02-02T15:20:27.686Z,97.45
2019-02-02T15:22:54.041Z,103.87
2019-02-02T15:25:20.527Z,82.27
2019-02-02T15:27:52.591Z,92.62
2019-02-02T15:30:29.849Z,88.27
2019-02-02T15:32:56.440Z,97.27
2019-02-02T15:35:22.906Z,106.43
2019-02-02T15:37:49.232Z,99.35
2019-02-02T15:40:19.152Z,101.80
2019-02-02T15:42:45.554Z,101.35
2019-02-02T15:45:15.098Z,102.90
2019-02-02T15:47:41.837Z,91.92
2019-02-02T15:50:11.529Z,100.55
2019-02-02T15:52:37.918Z,94.85
2019-02-02T15:55:08.297Z,102.78
2019-02-02T15:57:34.538Z,104.20
2019-02-02T16:00:00.885Z,94.62
2019-02-02T16:02:27.395Z,99.25
2019-02-02T16:04:53.693Z,106.05
2019-02-02T16:07:20.163Z,99.10
2019-02-02T16:09:46.801Z,87.33
2019-02-02T16:12:13.216Z,95.60
2019-02-02T16:14:39.476Z,90.75
2019-02-02T16:17:05.972Z,95.45
2019-02-02T16:19:32.425Z,94.10
2019-02-02T16:21:58.708Z,97.55
2019-02-02T16:24:25.020Z,91.12
2019-02-02T16:26:51.300Z,92.67
2019-02-02T16:29:17.681Z,97.62
2019-02-02T16:31:44.076Z,98.07
2019-02-02T16:34:10.841Z,98.50
2019-02-02T16:36:37.108Z,96.60
2019-02-02T16:39:06.061Z,84.25
2019-02-02T16:41:32.398Z,85.17
2019-02-02T16:43:59.168Z,90.70
2019-02-02T16:46:25.765Z,97.82
2019-02-02T16:48:52.159Z,93.52
2019-02-02T16:51:18.412Z,88.45
2019-02-02T16:53:46.702Z,107.50
2019-02-02T16:56:13.339Z,119.08
2019-02-02T16:58:39.995Z,97.53
2019-02-02T17:01:06.430Z,88.20
2019-02-02T17:03:34.073Z,94.92
2019-02-02T17:06:03.490Z,96.78
2019-02-02T17:08:29.742Z,96.05
2019-02-02T17:10:56.007Z,93.00
2019-02-02T17:13:22.425Z,98.15
2019-02-02T17:15:48.694Z,89.50
2019-02-02T17:18:15.550Z,89.85
2019-02-02T17:20:42.003Z,92.37
2019-02-02T17:23:08.484Z,89.75
2019-02-02T17:25:34.920Z,96.85
2019-02-02T17:28:01.726Z,101.35
2019-02-02T17:30:30.853Z,96.25
2019-02-02T17:33:03.835Z,86.57
2019-02-02T17:35:30.161Z,107.70
2019-02-02T17:37:56.568Z,91.55
2019-02-02T17:40:34.036Z,98.90
2019-02-02T17:43:00.672Z,107.50
2019-02-02T17:45:27.464Z,105.70
2019-02-02T17:47:53.739Z,110.17
2019-02-02T17:50:22.180Z,106.55
2019-02-02T17:52:48.479Z,106.67
2019-02-02T17:55:15.256Z,94.03
2019-02-02T17:57:41.603Z,95.85
2019-02-02T18:00:16.828Z,109.52
2019-02-02T18:02:43.112Z,104.55
2019-02-02T18:05:11.668Z,109.52
2019-02-02T18:07:38.013Z,111.95
2019-02-02T18:10:08.555Z,115.20
2019-02-02T18:12:34.910Z,108.17
2019-02-02T18:15:09.747Z,108.27
2019-02-02T18:17:36.133Z,115.15
2019-02-02T18:20:06.122Z,103.40
2019-02-02T18:22:32.442Z,93.03
2019-02-02T18:24:58.757Z,96.78
2019-02-02T18:27:27.008Z,98.55
2019-02-02T18:29:54.799Z,96.92
2019-02-02T18:32:21.342Z,97.35
2019-02-02T18:34:51.355Z,107.70
2019-02-02T18:37:16.071Z,105.03
2019-02-02T18:39:42.340Z,87.15
2019-02-02T18:42:08.715Z,90.45
2019-02-02T18:44:35.056Z,92.02
2019-02-02T18:47:01.491Z,103.00
2019-02-02T18:49:27.763Z,90.05
2019-02-02T18:51:54.020Z,99.58
2019-02-02T18:54:20.369Z,89.77
2019-02-02T18:56:47.024Z,103.87
2019-02-02T18:59:13.266Z,97.33
2019-02-02T19:01:39.639Z,94.65
2019-02-02T19:04:06.073Z,97.47
2019-02-02T19:06:32.519Z,95.17
2019-02-02T19:08:59.090Z,101.25
2019-02-02T19:11:25.400Z,96.70
2019-02-02T19:13:53.700Z,98.12
2019-02-02T19:16:20.282Z,100.97
2019-02-02T19:18:46.908Z,113.00
2019-02-02T19:21:13.326Z,92.60
2019-02-02T19:23:40.752Z,101.97
2019-02-02T19:26:07.215Z,93.00
2019-02-02T19:28:39.902Z,95.00
2019-02-02T19:31:01.973Z,95.92
2019-02-02T19:33:33.626Z,93.47
2019-02-02T19:36:00.087Z,88.37
2019-02-02T19:38:26.683Z,93.03
2019-02-02T19:40:52.939Z,90.42
2019-02-02T19:43:19.184Z,91.57
2019-02-02T19:45:45.589Z,89.58
2019-02-02T19:48:11.992Z,91.10
2019-02-02T19:50:38.468Z,107.70
2019-02-02T19:53:04.798Z,94.17
2019-02-02T19:55:31.546Z,85.62
2019-02-02T19:57:57.937Z,88.97
2019-02-02T20:00:30.784Z,87.00
2019-02-02T20:02:57.375Z,94.67
2019-02-02T20:05:28.560Z,91.57
2019-02-02T20:07:52.888Z,104.23
2019-02-02T20:10:19.549Z,92.08
2019-02-02T20:12:46.129Z,92.60
2019-02-02T20:15:18.235Z,98.30
2019-02-02T20:17:45.824Z,109.15
2019-02-02T20:20:16.932Z,93.25
2019-02-02T20:22:43.529Z,100.10
2019-02-02T20:25:11.547Z,93.90
2019-02-02T20:27:37.799Z,110.48
2019-02-02T20:30:10.675Z,91.70
2019-02-02T20:32:37.028Z,103.07
2019-02-02T20:35:07.084Z,93.78
2019-02-02T20:37:33.409Z,95.57
2019-02-02T20:40:03.239Z,92.05
2019-02-02T20:42:29.586Z,98.62
2019-02-02T20:44:55.834Z,97.50
2019-02-02T20:47:22.230Z,96.35
2019-02-02T20:49:49.208Z,103.12
2019-02-02T20:52:16.341Z,82.80
2019-02-02T20:54:42.727Z,93.65
2019-02-02T20:57:09.030Z,94.05
2019-02-02T20:59:36.481Z,94.03
2019-02-02T21:02:03.170Z,90.25
2019-02-02T21:04:29.453Z,86.57
2019-02-02T21:06:56.482Z,88.97
2019-02-02T21:09:23.124Z,90.47
2019-02-02T21:11:56.652Z,95.85
2019-02-02T21:14:17.620Z,96.28
2019-02-02T21:16:43.900Z,88.42
2019-02-02T21:19:10.748Z,94.30
2019-02-02T21:21:37.273Z,99.77
2019-02-02T21:24:03.979Z,81.15
2019-02-02T21:26:30.269Z,91.35
2019-02-02T21:28:56.571Z,104.17
2019-02-02T21:31:22.825Z,100.90
2019-02-02T21:33:49.072Z,90.03
2019-02-02T21:36:15.367Z,101.65
2019-02-02T21:38:42.304Z,88.03
2019-02-02T21:41:09.126Z,89.37
2019-02-02T21:43:35.910Z,89.13
2019-02-02T21:46:02.564Z,88.47
2019-02-02T21:48:28.869Z,94.25
2019-02-02T21:50:55.453Z,88.92
2019-02-02T21:53:22.489Z,94.47
2019-02-02T21:55:49.689Z,84.45
2019-02-02T21:58:16.352Z,84.67
2019-02-02T22:00:42.609Z,84.90
2019-02-02T22:03:09.161Z,76.75
2019-02-02T22:05:35.821Z,86.67
2019-02-02T22:08:04.365Z,90.65
2019-02-02T22:10:30.946Z,85.85
2019-02-02T22:12:57.936Z,82.57
2019-02-02T22:15:27.024Z,102.27
2019-02-02T22:17:53.669Z,85.80
2019-02-02T22:20:20.446Z,79.30
2019-02-02T22:22:47.497Z,80.07
2019-02-02T22:25:17.178Z,73.62
2019-02-02T22:27:43.747Z,77.72
2019-02-02T22:30:15.668Z,77.70
2019-02-02T22:32:41.948Z,66.75
2019-02-02T22:35:10.849Z,74.12
2019-02-02T22:37:53.896Z,73.22
2019-02-02T22:40:21.945Z,73.25
2019-02-02T22:42:48.881Z,63.60
2019-02-02T22:45:18.824Z,67.08
2019-02-02T22:47:46.405Z,74.75
2019-02-02T22:50:17.735Z,69.27
2019-02-02T22:52:44.383Z,66.57
2019-02-02T22:55:16.592Z,75.95
2019-02-02T22:57:43.480Z,69.00
2019-02-02T23:00:21.882Z,74.03
2019-02-02T23:02:48.145Z,70.52
2019-02-02T23:05:18.521Z,73.47
2019-02-02T23:07:48.565Z,71.22
2019-02-02T23:10:21.673Z,72.17
2019-02-02T23:12:51.743Z,75.12
2019-02-02T23:15:46.196Z,68.22
2019-02-02T23:18:12.893Z,75.47
2019-02-02T23:20:39.233Z,72.50
2019-02-02T23:23:05.681Z,70.10
2019-02-02T23:25:34.633Z,73.50
2019-02-02T23:28:00.154Z,73.90
2019-02-02T23:30:29.175Z,73.05
2019-02-02T23:32:55.475Z,63.60
2019-02-02T23:35:21.763Z,77.67
2019-02-02T23:37:48.174Z,78.90
2019-02-02T23:40:14.909Z,74.77
2019-02-02T23:42:41.549Z,85.62
2019-02-02T23:45:09.153Z,73.37
2019-02-02T23:47:35.459Z,79.25
2019-02-02T23:50:02.121Z,79.77
2019-02-02T23:52:28.431Z,78.42
2019-02-02T23:54:54.701Z,72.65
2019-02-02T23:57:21.363Z,73.67
2019-02-02T23:59:48.019Z,77.97
